Euro IV — IQNH — position and weather

sailwx.info

Track history (hours):
 
Tides and Currents Weather Stations Pressure Air Temp Water Temp Dewpoint Dewpoint Depression Visibility Wind Speed Wind Dir Waves Ship Positions

Euro IV

Last reported at 2017-Apr-25 15:56 UTC. Time now 2017-Apr-26 17:32 UTC.
Position N 44°06' E 009°50'.

Length 25 m; draft 1.3 m.

Type: Passenger vessel. MMSI: 247131500.

Date/timePositionNaut miles runAvg speedWind from/ knotsBaromVisibWave heightAir tempDewpointWater temp
2017-Apr-25 15:56N 44°06' E 009°50'3 7.2
2017-Apr-25 15:30N 44°03' E 009°50'0 0.0
2017-Apr-25 15:00N 44°03' E 009°50'0 0.0
2017-Apr-25 14:30N 44°03' E 009°50'3 2.5
2017-Apr-25 13:30N 44°06' E 009°50'1 1.5
2017-Apr-25 13:00N 44°06' E 009°50'0 0.0
2017-Apr-25 12:30N 44°06' E 009°50'0 0.0
2017-Apr-25 10:16N 44°06' E 009°50'2 7.8
2017-Apr-25 10:00N 44°05' E 009°51'0 0.3
2017-Apr-25 09:30N 44°04' E 009°51'2 3.9
2017-Apr-25 09:00N 44°06' E 009°50'3 6.0
2017-Apr-25 08:30N 44°03' E 009°51'0 0.6
2017-Apr-25 08:00N 44°03' E 009°50'3 6.8
2017-Apr-25 07:30N 44°04' E 009°55'4 7.4
2017-Apr-25 07:00N 44°06' E 009°50'0 0.0
2017-Apr-24 16:38N 44°06' E 009°50'1 4.3
2017-Apr-24 16:30N 44°06' E 009°50'3 5.3
2017-Apr-24 16:00N 44°04' E 009°52'5 9.6
2017-Apr-24 15:31N 44°04' E 009°46'3 4.6
2017-Apr-24 14:55N 44°06' E 009°43'3 8.2
2017-Apr-24 14:30N 44°08' E 009°40'4 3.7
2017-Apr-24 13:30N 44°06' E 009°44'3 4.7
2017-Apr-24 12:54N 44°08' E 009°41'1 3.0
2017-Apr-24 12:30N 44°09' E 009°39'0 0.2
2017-Apr-24 11:59N 44°09' E 009°39'0 0.0
2017-Apr-24 11:30N 44°09' E 009°39'1 2.0
2017-Apr-24 10:59N 44°08' E 009°41'0 0.2
2017-Apr-24 10:30N 44°08' E 009°41'2 4.7
2017-Apr-24 10:00N 44°06' E 009°43'1 1.5
2017-Apr-24 09:30N 44°06' E 009°42'3 5.7
2017-Apr-24 09:01N 44°09' E 009°39'4 8.4
2017-Apr-24 08:29N 44°06' E 009°44'4 8.3
2017-Apr-24 08:01N 44°03' E 009°48'2 3.9
2017-Apr-24 07:31N 44°05' E 009°51'2 3.3
2017-Apr-24 07:01N 44°06' E 009°50'0 0.0
2017-Apr-24 06:31N 44°06' E 009°50'0 0.0
2017-Apr-23 08:03N 44°06' E 009°50'0 0.0
2017-Apr-23 08:00N 44°06' E 009°50'0 0.0
2017-Apr-23 07:30N 44°06' E 009°50'0 0.0
2017-Apr-23 07:00N 44°06' E 009°50'0 0.0
2017-Apr-23 06:30N 44°06' E 009°50'0 0.0
2017-Apr-22 16:39N 44°06' E 009°50'0 0.0
2017-Apr-22 16:30N 44°06' E 009°50'0 0.0
2017-Apr-22 16:00N 44°06' E 009°50'0 0.0
2017-Apr-22 15:30N 44°06' E 009°50'0 0.0
2017-Apr-22 15:00N 44°06' E 009°50'0 0.0
2017-Apr-22 09:33N 44°06' E 009°50'0 0.0
2017-Apr-22 09:30N 44°06' E 009°50'0 0.0
2017-Apr-22 09:00N 44°06' E 009°50'0 0.0
2017-Apr-22 08:30N 44°06' E 009°50'0 0.0
2017-Apr-22 08:00N 44°06' E 009°50'0 0.0
2017-Apr-21 13:48N 44°06' E 009°50'3 8.9
2017-Apr-21 13:30N 44°04' E 009°51'1 1.8
2017-Apr-21 12:57N 44°03' E 009°50'0 0.3
2017-Apr-21 12:30N 44°03' E 009°50'3 6.3
2017-Apr-21 12:00N 44°06' E 009°50'0 0.0
2017-Apr-20 16:24N 44°06' E 009°50'0 0.0
2017-Apr-20 16:00N 44°06' E 009°50'0 0.0
2017-Apr-20 15:30N 44°06' E 009°50'0 0.0
2017-Apr-20 15:00N 44°06' E 009°50'0 0.0
2017-Apr-20 14:00N 44°06' E 009°50'0 0.0
2017-Apr-20 13:30N 44°06' E 009°50'0 0.0
2017-Apr-20 13:00N 44°06' E 009°50'0 0.0
2017-Apr-20 12:30N 44°06' E 009°50'0 0.0
2017-Apr-20 11:57N 44°06' E 009°50'0 0.0
2017-Apr-20 11:30N 44°06' E 009°50'0 0.0
2017-Apr-20 11:00N 44°06' E 009°50'0 0.0
2017-Apr-20 10:30N 44°06' E 009°50'0 0.0
2017-Apr-20 10:00N 44°06' E 009°50'0 0.0
2017-Apr-20 09:30N 44°06' E 009°50'0 0.0
2017-Apr-20 09:00N 44°06' E 009°50'0 0.0
2017-Apr-20 08:31N 44°06' E 009°50'0 0.0
2017-Apr-20 08:00N 44°06' E 009°50'0 0.0
2017-Apr-20 07:30N 44°06' E 009°50'0 0.0
2017-Apr-20 07:00N 44°06' E 009°50'0 0.0
2017-Apr-19 17:13N 44°06' E 009°50'1 6.6
2017-Apr-19 17:00N 44°05' E 009°51'3 6.0
2017-Apr-19 16:30N 44°04' E 009°47'4 7.2
2017-Apr-19 15:58N 44°06' E 009°43'4 7.8
2017-Apr-19 15:30N 44°09' E 009°39'3 6.1
2017-Apr-19 14:59N 44°07' E 009°43'1 3.0
2017-Apr-19 14:30N 44°05' E 009°44'5 5.2
2017-Apr-19 13:30N 44°03' E 009°50'0 0.0
2017-Apr-19 13:00N 44°03' E 009°50'0 0.0
2017-Apr-19 12:30N 44°03' E 009°50'0 0.0
2017-Apr-19 12:00N 44°03' E 009°50'2 3.0
2017-Apr-19 11:30N 44°04' E 009°48'5 7.5
2017-Apr-19 10:47N 44°07' E 009°42'2 6.2
2017-Apr-19 10:30N 44°08' E 009°40'1 2.0
2017-Apr-19 10:00N 44°09' E 009°39'3 5.8
2017-Apr-19 09:29N 44°07' E 009°43'2 4.0
2017-Apr-19 09:00N 44°05' E 009°44'510.0
2017-Apr-19 08:31N 44°03' E 009°50'3 6.2
2017-Apr-19 08:00N 44°06' E 009°50'0 0.0
2017-Apr-19 07:30N 44°06' E 009°50'0 0.0
2017-Apr-19 07:00N 44°06' E 009°50'0 0.0
2017-Apr-19 06:30N 44°06' E 009°50'0 0.0
2017-Apr-18 17:05N 44°06' E 009°50'0 3.5
2017-Apr-18 17:00N 44°06' E 009°50'3 6.6
2017-Apr-18 16:31N 44°03' E 009°50'713.2
2017-Apr-18 16:00N 44°06' E 009°42'3 6.0
2017-Apr-18 15:29N 44°09' E 009°39'2 3.0
2017-Apr-18 14:58N 44°08' E 009°41'3 6.2
2017-Apr-18 14:30N 44°06' E 009°44'5 5.3
2017-Apr-18 13:30N 44°03' E 009°50'0 0.0
2017-Apr-18 13:00N 44°03' E 009°50'0 0.0
2017-Apr-18 12:31N 44°03' E 009°50'0 0.0
2017-Apr-18 12:01N 44°03' E 009°50'1 1.8
2017-Apr-18 11:30N 44°03' E 009°49'5 8.9
2017-Apr-18 11:00N 44°06' E 009°44'3 6.2
2017-Apr-18 10:29N 44°08' E 009°41'1 2.1
2017-Apr-18 10:01N 44°09' E 009°39'3 5.9
2017-Apr-18 09:30N 44°07' E 009°42'3 5.0
2017-Apr-18 09:01N 44°05' E 009°45'4 8.8
2017-Apr-18 08:31N 44°03' E 009°51'3 6.3
2017-Apr-18 08:01N 44°06' E 009°50'0 0.0
2017-Apr-18 07:30N 44°06' E 009°50'0 0.0
2017-Apr-18 07:01N 44°06' E 009°50'0 0.0
2017-Apr-18 06:31N 44°06' E 009°50'0 0.0
2017-Apr-17 17:15N 44°06' E 009°50'2 7.8
2017-Apr-17 17:00N 44°05' E 009°52'2 3.6
2017-Apr-17 16:31N 44°03' E 009°52'2 3.2
2017-Apr-17 16:00N 44°04' E 009°54'2 4.5
2017-Apr-17 15:30N 44°03' E 009°51'2 4.9
2017-Apr-17 15:00N 44°04' E 009°54'1 2.5
2017-Apr-17 14:30N 44°04' E 009°52'1 0.9
2017-Apr-17 13:30N 44°03' E 009°52'1 2.1
2017-Apr-17 13:01N 44°03' E 009°50'3 5.7
2017-Apr-17 12:30N 44°05' E 009°54'1 1.4
2017-Apr-17 12:00N 44°04' E 009°55'0 0.0
2017-Apr-17 11:30N 44°04' E 009°55'3 6.8
2017-Apr-17 11:00N 44°03' E 009°50'1 2.0
2017-Apr-17 10:30N 44°02' E 009°51'2 3.2
2017-Apr-17 10:00N 44°04' E 009°52'2 3.2
2017-Apr-17 09:30N 44°05' E 009°53'3 5.2
2017-Apr-17 09:00N 44°06' E 009°50'3 6.0
2017-Apr-17 08:30N 44°03' E 009°50'0 0.0
2017-Apr-17 08:00N 44°03' E 009°50'3 6.8
2017-Apr-17 07:30N 44°04' E 009°55'2 4.7
2017-Apr-17 07:00N 44°05' E 009°51'2 0.1
2017-Apr-16 17:08N 44°06' E 009°50'0 3.7
2017-Apr-16 17:01N 44°06' E 009°50'3 6.1
2017-Apr-16 16:30N 44°04' E 009°48'714.8
2017-Apr-16 16:00N 44°08' E 009°39'4 8.2
2017-Apr-16 15:30N 44°05' E 009°44'510.5
2017-Apr-16 15:00N 44°03' E 009°50'10 9.5
2017-Apr-16 14:00N 44°09' E 009°39'0 0.7
2017-Apr-16 13:29N 44°08' E 009°39'0 0.4
2017-Apr-16 13:00N 44°08' E 009°39'0 0.3
2017-Apr-16 12:30N 44°08' E 009°39'0 0.7
2017-Apr-16 11:59N 44°08' E 009°40'4 6.6
2017-Apr-16 11:24N 44°06' E 009°44'511.8
2017-Apr-16 11:00N 44°03' E 009°49'1 1.3
2017-Apr-16 10:31N 44°03' E 009°50'0 0.9
2017-Apr-16 10:01N 44°03' E 009°51'3 6.8
2017-Apr-16 09:31N 44°06' E 009°50'0 0.0
2017-Apr-16 09:00N 44°06' E 009°50'0 0.0
2017-Apr-16 08:30N 44°06' E 009°50'0 0.5
2017-Apr-16 07:55N 44°06' E 009°50'0 0.0
2017-Apr-16 07:31N 44°06' E 009°50'  
Track history (hours):
 
Tides and Currents Weather Stations Pressure Air Temp Water Temp Dewpoint Dewpoint Depression Visibility Wind Speed Wind Dir Waves Ship Positions

Euro IV

Last reported at 2017-Apr-25 15:56 UTC. Time now 2017-Apr-26 17:32 UTC.
Position N 44°06' E 009°50'.

Length 25 m; draft 1.3 m.

Type: Passenger vessel. MMSI: 247131500.

Date/timePositionNaut miles runAvg speedWind from/ knotsBaromVisibWave heightAir tempDewpointWater temp
2017-Apr-25 15:56N 44°06' E 009°50'3 7.2
2017-Apr-25 15:30N 44°03' E 009°50'0 0.0
2017-Apr-25 15:00N 44°03' E 009°50'0 0.0
2017-Apr-25 14:30N 44°03' E 009°50'3 2.5
2017-Apr-25 13:30N 44°06' E 009°50'1 1.5
2017-Apr-25 13:00N 44°06' E 009°50'0 0.0
2017-Apr-25 12:30N 44°06' E 009°50'0 0.0
2017-Apr-25 10:16N 44°06' E 009°50'2 7.8
2017-Apr-25 10:00N 44°05' E 009°51'0 0.3
2017-Apr-25 09:30N 44°04' E 009°51'2 3.9
2017-Apr-25 09:00N 44°06' E 009°50'3 6.0
2017-Apr-25 08:30N 44°03' E 009°51'0 0.6
2017-Apr-25 08:00N 44°03' E 009°50'3 6.8
2017-Apr-25 07:30N 44°04' E 009°55'4 7.4
2017-Apr-25 07:00N 44°06' E 009°50'0 0.0
2017-Apr-24 16:38N 44°06' E 009°50'1 4.3
2017-Apr-24 16:30N 44°06' E 009°50'3 5.3
2017-Apr-24 16:00N 44°04' E 009°52'5 9.6
2017-Apr-24 15:31N 44°04' E 009°46'3 4.6
2017-Apr-24 14:55N 44°06' E 009°43'3 8.2
2017-Apr-24 14:30N 44°08' E 009°40'4 3.7
2017-Apr-24 13:30N 44°06' E 009°44'3 4.7
2017-Apr-24 12:54N 44°08' E 009°41'1 3.0
2017-Apr-24 12:30N 44°09' E 009°39'0 0.2
2017-Apr-24 11:59N 44°09' E 009°39'0 0.0
2017-Apr-24 11:30N 44°09' E 009°39'1 2.0
2017-Apr-24 10:59N 44°08' E 009°41'0 0.2
2017-Apr-24 10:30N 44°08' E 009°41'2 4.7
2017-Apr-24 10:00N 44°06' E 009°43'1 1.5
2017-Apr-24 09:30N 44°06' E 009°42'3 5.7
2017-Apr-24 09:01N 44°09' E 009°39'4 8.4
2017-Apr-24 08:29N 44°06' E 009°44'4 8.3
2017-Apr-24 08:01N 44°03' E 009°48'2 3.9
2017-Apr-24 07:31N 44°05' E 009°51'2 3.3
2017-Apr-24 07:01N 44°06' E 009°50'0 0.0
2017-Apr-24 06:31N 44°06' E 009°50'0 0.0
2017-Apr-23 08:03N 44°06' E 009°50'0 0.0
2017-Apr-23 08:00N 44°06' E 009°50'0 0.0
2017-Apr-23 07:30N 44°06' E 009°50'0 0.0
2017-Apr-23 07:00N 44°06' E 009°50'0 0.0
2017-Apr-23 06:30N 44°06' E 009°50'0 0.0
2017-Apr-22 16:39N 44°06' E 009°50'0 0.0
2017-Apr-22 16:30N 44°06' E 009°50'0 0.0
2017-Apr-22 16:00N 44°06' E 009°50'0 0.0
2017-Apr-22 15:30N 44°06' E 009°50'0 0.0
2017-Apr-22 15:00N 44°06' E 009°50'0 0.0
2017-Apr-22 09:33N 44°06' E 009°50'0 0.0
2017-Apr-22 09:30N 44°06' E 009°50'0 0.0
2017-Apr-22 09:00N 44°06' E 009°50'0 0.0
2017-Apr-22 08:30N 44°06' E 009°50'0 0.0
2017-Apr-22 08:00N 44°06' E 009°50'0 0.0
2017-Apr-21 13:48N 44°06' E 009°50'3 8.9
2017-Apr-21 13:30N 44°04' E 009°51'1 1.8
2017-Apr-21 12:57N 44°03' E 009°50'0 0.3
2017-Apr-21 12:30N 44°03' E 009°50'3 6.3
2017-Apr-21 12:00N 44°06' E 009°50'0 0.0
2017-Apr-20 16:24N 44°06' E 009°50'0 0.0
2017-Apr-20 16:00N 44°06' E 009°50'0 0.0
2017-Apr-20 15:30N 44°06' E 009°50'0 0.0
2017-Apr-20 15:00N 44°06' E 009°50'0 0.0
2017-Apr-20 14:00N 44°06' E 009°50'0 0.0
2017-Apr-20 13:30N 44°06' E 009°50'0 0.0
2017-Apr-20 13:00N 44°06' E 009°50'0 0.0
2017-Apr-20 12:30N 44°06' E 009°50'0 0.0
2017-Apr-20 11:57N 44°06' E 009°50'0 0.0
2017-Apr-20 11:30N 44°06' E 009°50'0 0.0
2017-Apr-20 11:00N 44°06' E 009°50'0 0.0
2017-Apr-20 10:30N 44°06' E 009°50'0 0.0
2017-Apr-20 10:00N 44°06' E 009°50'0 0.0
2017-Apr-20 09:30N 44°06' E 009°50'0 0.0
2017-Apr-20 09:00N 44°06' E 009°50'0 0.0
2017-Apr-20 08:31N 44°06' E 009°50'0 0.0
2017-Apr-20 08:00N 44°06' E 009°50'0 0.0
2017-Apr-20 07:30N 44°06' E 009°50'0 0.0
2017-Apr-20 07:00N 44°06' E 009°50'0 0.0
2017-Apr-19 17:13N 44°06' E 009°50'1 6.6
2017-Apr-19 17:00N 44°05' E 009°51'3 6.0
2017-Apr-19 16:30N 44°04' E 009°47'4 7.2
2017-Apr-19 15:58N 44°06' E 009°43'4 7.8
2017-Apr-19 15:30N 44°09' E 009°39'3 6.1
2017-Apr-19 14:59N 44°07' E 009°43'1 3.0
2017-Apr-19 14:30N 44°05' E 009°44'5 5.2
2017-Apr-19 13:30N 44°03' E 009°50'0 0.0
2017-Apr-19 13:00N 44°03' E 009°50'0 0.0
2017-Apr-19 12:30N 44°03' E 009°50'0 0.0
2017-Apr-19 12:00N 44°03' E 009°50'2 3.0
2017-Apr-19 11:30N 44°04' E 009°48'5 7.5
2017-Apr-19 10:47N 44°07' E 009°42'2 6.2
2017-Apr-19 10:30N 44°08' E 009°40'1 2.0
2017-Apr-19 10:00N 44°09' E 009°39'3 5.8
2017-Apr-19 09:29N 44°07' E 009°43'2 4.0
2017-Apr-19 09:00N 44°05' E 009°44'510.0
2017-Apr-19 08:31N 44°03' E 009°50'3 6.2
2017-Apr-19 08:00N 44°06' E 009°50'0 0.0
2017-Apr-19 07:30N 44°06' E 009°50'0 0.0
2017-Apr-19 07:00N 44°06' E 009°50'0 0.0
2017-Apr-19 06:30N 44°06' E 009°50'0 0.0
2017-Apr-18 17:05N 44°06' E 009°50'0 3.5
2017-Apr-18 17:00N 44°06' E 009°50'3 6.6
2017-Apr-18 16:31N 44°03' E 009°50'713.2
2017-Apr-18 16:00N 44°06' E 009°42'3 6.0
2017-Apr-18 15:29N 44°09' E 009°39'2 3.0
2017-Apr-18 14:58N 44°08' E 009°41'3 6.2
2017-Apr-18 14:30N 44°06' E 009°44'5 5.3
2017-Apr-18 13:30N 44°03' E 009°50'0 0.0
2017-Apr-18 13:00N 44°03' E 009°50'0 0.0
2017-Apr-18 12:31N 44°03' E 009°50'0 0.0
2017-Apr-18 12:01N 44°03' E 009°50'1 1.8
2017-Apr-18 11:30N 44°03' E 009°49'5 8.9
2017-Apr-18 11:00N 44°06' E 009°44'3 6.2
2017-Apr-18 10:29N 44°08' E 009°41'1 2.1
2017-Apr-18 10:01N 44°09' E 009°39'3 5.9
2017-Apr-18 09:30N 44°07' E 009°42'3 5.0
2017-Apr-18 09:01N 44°05' E 009°45'4 8.8
2017-Apr-18 08:31N 44°03' E 009°51'3 6.3
2017-Apr-18 08:01N 44°06' E 009°50'0 0.0
2017-Apr-18 07:30N 44°06' E 009°50'0 0.0
2017-Apr-18 07:01N 44°06' E 009°50'0 0.0
2017-Apr-18 06:31N 44°06' E 009°50'0 0.0
2017-Apr-17 17:15N 44°06' E 009°50'2 7.8
2017-Apr-17 17:00N 44°05' E 009°52'2 3.6
2017-Apr-17 16:31N 44°03' E 009°52'2 3.2
2017-Apr-17 16:00N 44°04' E 009°54'2 4.5
2017-Apr-17 15:30N 44°03' E 009°51'2 4.9
2017-Apr-17 15:00N 44°04' E 009°54'1 2.5
2017-Apr-17 14:30N 44°04' E 009°52'1 0.9
2017-Apr-17 13:30N 44°03' E 009°52'1 2.1
2017-Apr-17 13:01N 44°03' E 009°50'3 5.7
2017-Apr-17 12:30N 44°05' E 009°54'1 1.4
2017-Apr-17 12:00N 44°04' E 009°55'0 0.0
2017-Apr-17 11:30N 44°04' E 009°55'3 6.8
2017-Apr-17 11:00N 44°03' E 009°50'1 2.0
2017-Apr-17 10:30N 44°02' E 009°51'2 3.2
2017-Apr-17 10:00N 44°04' E 009°52'2 3.2
2017-Apr-17 09:30N 44°05' E 009°53'3 5.2
2017-Apr-17 09:00N 44°06' E 009°50'3 6.0
2017-Apr-17 08:30N 44°03' E 009°50'0 0.0
2017-Apr-17 08:00N 44°03' E 009°50'3 6.8
2017-Apr-17 07:30N 44°04' E 009°55'2 4.7
2017-Apr-17 07:00N 44°05' E 009°51'2 0.1
2017-Apr-16 17:08N 44°06' E 009°50'0 3.7
2017-Apr-16 17:01N 44°06' E 009°50'3 6.1
2017-Apr-16 16:30N 44°04' E 009°48'714.8
2017-Apr-16 16:00N 44°08' E 009°39'4 8.2
2017-Apr-16 15:30N 44°05' E 009°44'510.5
2017-Apr-16 15:00N 44°03' E 009°50'10 9.5
2017-Apr-16 14:00N 44°09' E 009°39'0 0.7
2017-Apr-16 13:29N 44°08' E 009°39'0 0.4
2017-Apr-16 13:00N 44°08' E 009°39'0 0.3
2017-Apr-16 12:30N 44°08' E 009°39'0 0.7
2017-Apr-16 11:59N 44°08' E 009°40'4 6.6
2017-Apr-16 11:24N 44°06' E 009°44'511.8
2017-Apr-16 11:00N 44°03' E 009°49'1 1.3
2017-Apr-16 10:31N 44°03' E 009°50'0 0.9
2017-Apr-16 10:01N 44°03' E 009°51'3 6.8
2017-Apr-16 09:31N 44°06' E 009°50'0 0.0
2017-Apr-16 09:00N 44°06' E 009°50'0 0.0
2017-Apr-16 08:30N 44°06' E 009°50'0 0.5
2017-Apr-16 07:55N 44°06' E 009°50'0 0.0
2017-Apr-16 07:31N 44°06' E 009°50'  

Dump ship's entire track history